Flag for USA

Past Weather in Rocky Mountain National Park, Colorado, USA — Yesterday and Last 2 Weeks

Currently: 32 °F. Passing clouds. (Weather station: Broomfield / Jeffco, USA). See more current weather

Past Weather in Rocky Mountain National Park — Graph

°F

Rocky Mountain National Park Temperature Yesterday

Maximum temperature yesterday: 48 °F (at 1:45 pm)
Minimum temperature yesterday: 14 °F (at 12:15 am)
Average temperature yesterday: 32 °F

High & Low Weather Summary for the Past Weeks

 TemperatureHumidityPressure
High59 °F (Jan 16, 12:45 pm)100% (Jan 19, 4:35 am)30.43 "Hg (Jan 19, 4:35 am)
Low14 °F (Jan 26, 12:55 am)10% (Jan 16, 12:45 pm)29.81 "Hg (Jan 18, 3:15 am)
Average33 °F59%30.12 "Hg
* Reported Jan 14 5:15 am — Jan 29 5:59 am, Rocky Mountain National Park. Weather by CustomWeather, © 2022

Note: Actual official high and low records may vary slightly from our data, if they occured in-between our weather recording intervals... More about our weather records

Rocky Mountain National Park Weather History for the Previous 24 Hours

Scroll right to see more
 ConditionsComfort  
Time TempWeatherWind HumidityBarometerVisibility
5:59 am
Sat, Jan 29
32 °FPassing clouds.6 mph29%30.19 "Hg10 mi
5:15 am36 °FClear.5 mph25%30.18 "Hg10 mi
4:55 am36 °FClear.6 mph25%30.18 "Hg10 mi
4:35 am45 °FClear.9 mph15%30.18 "Hg10 mi
4:15 am39 °FClear.5 mph22%30.19 "Hg10 mi
3:55 am43 °FClear.14 mph19%30.18 "Hg10 mi
3:35 am43 °FClear.20 mph19%30.18 "Hg10 mi
2:55 am43 °FClear.17 mph19%30.20 "Hg10 mi
2:35 am43 °FClear.22 mph19%30.20 "Hg10 mi
2:15 am43 °FClear.23 mph19%30.21 "Hg10 mi
1:55 am43 °FClear.23 mph17%30.22 "Hg10 mi
1:35 am43 °FClear.21 mph19%30.22 "Hg10 mi
1:15 am43 °FClear.22 mph19%30.22 "Hg10 mi
12:55 am43 °FClear.23 mph19%30.22 "Hg10 mi
12:35 am43 °FClear.23 mph19%30.22 "Hg10 mi
11:55 pm
Fri, Jan 28
39 °FClear.7 mph20%30.22 "Hg10 mi
11:35 pm36 °FClear.7 mph25%30.23 "Hg10 mi
11:15 pm37 °FClear.8 mph23%30.23 "Hg10 mi
10:55 pm39 °FClear.8 mph22%30.24 "Hg10 mi
10:35 pm36 °FClear.7 mph27%30.24 "Hg10 mi
10:15 pm36 °FClear.6 mph27%30.24 "Hg10 mi
9:45 pm37 °FPassing clouds.7 mph28%30.25 "Hg10 mi
8:45 pm37 °FPassing clouds.15 mph23%30.25 "Hg10 mi
5:10 pm45 °FSunny.5 mph25%30.30 "Hg10 mi
4:47 pm46 °FSunny.No wind25%30.30 "Hg10 mi
3:45 pm48 °FSunny.8 mph23%30.31 "Hg10 mi
1:45 pm48 °FSunny.12 mph23%30.33 "Hg10 mi
12:45 pm45 °FSunny.9 mph31%30.36 "Hg10 mi
11:45 am45 °FSunny.7 mph31%30.39 "Hg10 mi
10:45 am39 °FSunny.3 mph39%30.41 "Hg10 mi
8:47 am34 °FSunny.5 mph29%30.40 "Hg10 mi
7:48 am30 °FSunny.10 mph31%30.39 "Hg10 mi
Weather by CustomWeather, © 2022

See weather overview